createdAt,value
2022-11-15T00:01:16.649Z,18.13
2022-11-15T00:03:44.110Z,18.27
2022-11-15T00:06:11.826Z,18.00
2022-11-15T00:08:39.017Z,19.77
2022-11-15T00:11:06.897Z,19.55
2022-11-15T00:13:34.468Z,20.33
2022-11-15T00:16:03.119Z,19.13
2022-11-15T00:18:31.109Z,20.15
2022-11-15T00:21:04.387Z,19.13
2022-11-15T00:23:32.000Z,21.10
2022-11-15T00:26:00.246Z,21.63
2022-11-15T00:28:28.072Z,21.35
2022-11-15T00:30:55.732Z,21.30
2022-11-15T00:33:23.212Z,20.55
2022-11-15T00:35:50.880Z,20.60
2022-11-15T00:38:18.116Z,21.85
2022-11-15T00:40:47.069Z,20.70
2022-11-15T00:43:14.321Z,20.25
2022-11-15T00:45:41.740Z,22.27
2022-11-15T00:48:09.215Z,22.55
2022-11-15T00:50:36.551Z,22.13
2022-11-15T00:53:03.798Z,22.13
2022-11-15T00:55:31.873Z,22.90
2022-11-15T00:57:58.969Z,22.75
2022-11-15T01:00:26.316Z,21.20
2022-11-15T01:02:53.640Z,21.55
2022-11-15T01:05:21.712Z,22.60
2022-11-15T01:07:49.368Z,21.52
2022-11-15T01:10:16.930Z,21.13
2022-11-15T01:12:44.398Z,22.13
2022-11-15T01:15:12.462Z,21.83
2022-11-15T01:17:40.119Z,21.08
2022-11-15T01:20:07.722Z,21.55
2022-11-15T01:22:35.028Z,20.80
2022-11-15T01:25:02.203Z,21.42
2022-11-15T01:27:29.942Z,21.30
2022-11-15T01:29:57.479Z,22.08
2022-11-15T01:32:25.002Z,21.02
2022-11-15T01:34:52.175Z,21.75
2022-11-15T01:37:19.255Z,21.42
2022-11-15T01:39:46.719Z,21.63
2022-11-15T01:42:14.843Z,21.98
2022-11-15T01:44:44.129Z,22.58
2022-11-15T01:47:17.112Z,21.35
2022-11-15T01:49:54.057Z,20.88
2022-11-15T01:52:23.022Z,21.98
2022-11-15T01:54:52.215Z,21.55
2022-11-15T01:57:19.708Z,21.13
2022-11-15T01:59:47.284Z,22.55
2022-11-15T02:02:15.351Z,21.70
2022-11-15T02:04:44.635Z,23.58
2022-11-15T02:07:13.192Z,22.13
2022-11-15T02:09:41.125Z,22.38
2022-11-15T02:12:10.029Z,21.35
2022-11-15T02:14:38.667Z,21.77
2022-11-15T02:17:05.708Z,21.92
2022-11-15T02:19:32.802Z,23.33
2022-11-15T02:22:19.476Z,22.40
2022-11-15T02:25:07.607Z,24.05
2022-11-15T02:27:41.206Z,21.95
2022-11-15T02:30:22.235Z,21.92
2022-11-15T02:32:58.954Z,20.25
2022-11-15T02:35:29.416Z,21.45
2022-11-15T02:38:12.139Z,23.33
2022-11-15T02:40:52.889Z,22.17
2022-11-15T02:43:56.752Z,21.10
2022-11-15T02:46:49.547Z,20.85
2022-11-15T02:49:17.293Z,21.38
2022-11-15T02:51:45.758Z,20.25
2022-11-15T02:54:14.316Z,21.42
2022-11-15T02:56:42.142Z,20.50
2022-11-15T02:59:15.635Z,20.10
2022-11-15T03:04:18.996Z,19.38
2022-11-15T03:06:49.198Z,19.42
2022-11-15T03:09:17.149Z,20.58
2022-11-15T03:11:49.204Z,20.65
2022-11-15T03:14:16.878Z,19.75
2022-11-15T03:16:50.102Z,21.35
2022-11-15T03:19:35.973Z,20.73
2022-11-15T03:22:05.568Z,21.63
2022-11-15T03:24:33.643Z,19.25
2022-11-15T03:27:04.160Z,19.63
2022-11-15T03:29:36.253Z,19.10
2022-11-15T03:32:14.662Z,21.15
2022-11-15T03:34:44.973Z,19.98
2022-11-15T03:37:13.651Z,21.27
2022-11-15T03:39:40.701Z,20.92
2022-11-15T03:42:13.989Z,21.40
2022-11-15T03:44:50.214Z,20.98
2022-11-15T03:47:23.748Z,20.27
2022-11-15T03:52:19.895Z,18.63
2022-11-15T03:55:00.600Z,19.80
2022-11-15T03:57:28.070Z,20.77
2022-11-15T03:59:55.783Z,20.58
2022-11-15T04:02:22.978Z,19.33
2022-11-15T04:04:50.506Z,20.60
2022-11-15T04:07:18.195Z,19.25
2022-11-15T04:10:04.059Z,19.88
2022-11-15T04:12:35.396Z,20.08
2022-11-15T04:15:10.969Z,20.85
2022-11-15T04:17:52.229Z,19.73
2022-11-15T04:20:45.478Z,21.20
2022-11-15T04:23:33.476Z,20.10
2022-11-15T04:26:01.962Z,18.88
2022-11-15T04:28:29.568Z,19.25
2022-11-15T04:30:58.151Z,19.65
2022-11-15T04:33:25.497Z,20.70
2022-11-15T04:36:11.813Z,20.83
2022-11-15T04:38:39.165Z,19.85
2022-11-15T04:41:06.298Z,17.90
2022-11-15T04:43:33.808Z,17.92
2022-11-15T04:46:01.615Z,19.63
2022-11-15T04:48:28.993Z,19.20
2022-11-15T04:50:56.199Z,19.15
2022-11-15T04:53:23.281Z,18.75
2022-11-15T04:55:50.758Z,18.52
2022-11-15T04:58:21.725Z,20.20
2022-11-15T05:00:49.005Z,20.55
2022-11-15T05:03:35.867Z,19.58
2022-11-15T05:06:03.308Z,19.48
2022-11-15T05:08:31.070Z,20.48
2022-11-15T05:11:02.721Z,20.20
2022-11-15T05:13:30.544Z,19.35
2022-11-15T05:16:01.025Z,19.60
2022-11-15T05:18:28.595Z,18.63
2022-11-15T05:20:55.939Z,18.33
2022-11-15T05:23:26.870Z,18.40
2022-11-15T05:25:54.090Z,19.17
2022-11-15T05:28:21.388Z,19.02
2022-11-15T05:30:48.852Z,19.08
2022-11-15T05:33:16.741Z,19.23
2022-11-15T05:35:47.146Z,19.98
2022-11-15T05:38:14.480Z,20.63
2022-11-15T05:40:41.669Z,20.77
2022-11-15T05:43:09.522Z,20.63
2022-11-15T05:45:37.096Z,20.95
2022-11-15T05:48:08.598Z,21.02
2022-11-15T05:50:38.945Z,20.58
2022-11-15T05:53:06.513Z,19.38
2022-11-15T05:55:33.985Z,20.15
2022-11-15T05:58:02.062Z,20.98
2022-11-15T06:00:30.139Z,18.90
2022-11-15T06:02:57.214Z,19.15
2022-11-15T06:05:24.920Z,20.42
2022-11-15T06:07:52.442Z,20.63
2022-11-15T06:10:19.635Z,19.20
2022-11-15T06:12:47.131Z,19.48
2022-11-15T06:15:14.534Z,18.98
2022-11-15T06:17:42.291Z,20.58
2022-11-15T06:20:09.627Z,19.73
2022-11-15T06:22:36.949Z,19.08
2022-11-15T06:25:05.777Z,21.27
2022-11-15T06:27:33.386Z,19.23
2022-11-15T06:30:00.591Z,19.70
2022-11-15T06:32:29.665Z,18.95
2022-11-15T06:34:56.743Z,19.27
2022-11-15T06:37:26.790Z,19.80
2022-11-15T06:39:54.243Z,19.45
2022-11-15T06:42:23.621Z,18.40
2022-11-15T06:44:51.101Z,18.98
2022-11-15T06:47:18.232Z,17.85
2022-11-15T06:49:45.459Z,18.77
2022-11-15T06:52:12.626Z,18.30
2022-11-15T06:54:39.773Z,18.77
2022-11-15T06:57:07.227Z,17.35
2022-11-15T06:59:40.975Z,18.95
2022-11-15T07:02:10.984Z,17.13
2022-11-15T07:04:38.470Z,17.17
2022-11-15T07:07:05.696Z,19.25
2022-11-15T07:09:33.055Z,18.85
2022-11-15T07:12:07.528Z,18.33
2022-11-15T07:14:35.389Z,18.77
2022-11-15T07:17:05.575Z,17.92
2022-11-15T07:19:32.766Z,18.90
2022-11-15T07:22:01.309Z,18.35
2022-11-15T07:24:29.171Z,18.50
2022-11-15T07:26:56.750Z,18.10
2022-11-15T07:29:24.993Z,17.55
2022-11-15T07:31:52.660Z,17.92
2022-11-15T07:34:19.988Z,17.05
2022-11-15T07:36:47.085Z,16.67
2022-11-15T07:39:15.031Z,16.33
2022-11-15T07:41:42.442Z,15.63
2022-11-15T07:44:10.009Z,16.80
2022-11-15T07:46:37.789Z,15.93
2022-11-15T07:49:05.340Z,16.30
2022-11-15T07:51:32.934Z,15.70
2022-11-15T07:54:07.538Z,16.95
2022-11-15T07:56:34.845Z,16.17
2022-11-15T07:59:04.624Z,15.63
2022-11-15T08:01:31.892Z,15.95
2022-11-15T08:04:02.557Z,15.63
2022-11-15T08:06:29.730Z,14.95
2022-11-15T08:08:59.789Z,14.40
2022-11-15T08:11:27.348Z,14.65
2022-11-15T08:13:55.809Z,14.48
2022-11-15T08:16:23.586Z,16.55
2022-11-15T08:18:50.695Z,14.90
2022-11-15T08:21:20.448Z,13.57
2022-11-15T08:23:55.459Z,13.63
2022-11-15T08:26:23.007Z,14.15
2022-11-15T08:28:50.601Z,14.57
2022-11-15T08:31:19.294Z,14.25
2022-11-15T08:33:46.584Z,14.20
2022-11-15T08:36:15.681Z,13.55
2022-11-15T08:38:43.074Z,13.77
2022-11-15T08:41:15.669Z,13.30
2022-11-15T08:43:42.752Z,13.33
2022-11-15T08:46:14.374Z,12.32
2022-11-15T08:48:41.695Z,13.20
2022-11-15T08:51:09.392Z,13.95
2022-11-15T08:53:36.535Z,14.75
2022-11-15T08:56:04.411Z,13.02
2022-11-15T08:58:31.950Z,13.73
2022-11-15T09:01:02.392Z,13.65
2022-11-15T09:03:30.088Z,12.77
2022-11-15T09:05:57.951Z,13.30
2022-11-15T09:08:51.072Z,12.73
2022-11-15T09:11:21.687Z,12.93
2022-11-15T09:13:48.913Z,12.55
2022-11-15T09:16:16.591Z,12.60
2022-11-15T09:18:44.096Z,12.98
2022-11-15T09:21:12.180Z,11.32
2022-11-15T09:23:39.823Z,11.52
2022-11-15T09:26:07.991Z,11.82
2022-11-15T09:28:35.924Z,11.32
2022-11-15T09:31:05.383Z,10.35
2022-11-15T09:33:32.934Z,10.02
2022-11-15T09:36:05.500Z,10.00
2022-11-15T09:38:33.745Z,10.23
2022-11-15T09:41:21.656Z,8.95
2022-11-15T09:44:07.503Z,9.15
2022-11-15T09:46:43.625Z,7.80
2022-11-15T09:49:11.347Z,7.63
2022-11-15T09:51:57.524Z,7.68
2022-11-15T09:54:52.646Z,7.40
2022-11-15T09:57:40.881Z,6.95
2022-11-15T10:00:44.651Z,7.32
2022-11-15T10:03:14.208Z,6.88
2022-11-15T10:05:43.884Z,6.25
2022-11-15T10:08:31.266Z,6.25
2022-11-15T10:14:14.798Z,5.90
2022-11-15T10:16:47.618Z,5.30
2022-11-15T10:19:26.975Z,5.05
2022-11-15T10:21:54.462Z,3.95
2022-11-15T10:24:22.448Z,4.07
2022-11-15T10:26:50.543Z,4.43
2022-11-15T10:29:26.511Z,3.90
2022-11-15T10:31:54.936Z,3.83
2022-11-15T10:34:23.666Z,3.42
2022-11-15T10:37:06.793Z,3.50
2022-11-15T10:39:37.279Z,3.33
2022-11-15T10:42:18.337Z,3.67
2022-11-15T10:44:46.945Z,3.60
2022-11-15T10:47:37.784Z,3.58
2022-11-15T10:50:29.241Z,3.08
2022-11-15T10:52:57.047Z,3.20
2022-11-15T10:55:26.689Z,3.25
2022-11-15T10:57:55.265Z,3.50
2022-11-15T11:00:22.379Z,3.97
2022-11-15T11:02:58.544Z,3.08
2022-11-15T11:05:28.767Z,2.80
2022-11-15T11:08:19.051Z,2.72
2022-11-15T11:11:02.977Z,3.13
2022-11-15T11:13:38.544Z,2.60
2022-11-15T11:16:26.750Z,2.88
2022-11-15T11:18:54.252Z,2.90
2022-11-15T11:21:36.777Z,2.63
2022-11-15T11:24:11.763Z,2.65
2022-11-15T11:26:45.379Z,2.38
2022-11-15T11:29:20.591Z,2.50
2022-11-15T11:31:57.216Z,2.47
2022-11-15T11:34:26.582Z,2.58
2022-11-15T11:36:53.991Z,2.60
2022-11-15T11:39:40.172Z,2.63
2022-11-15T11:42:10.083Z,1.70
2022-11-15T11:44:44.621Z,1.90
2022-11-15T11:47:35.295Z,1.85
2022-11-15T11:50:23.220Z,2.05
2022-11-15T11:52:50.596Z,2.10
2022-11-15T11:55:17.866Z,1.65
2022-11-15T11:57:52.780Z,1.92
2022-11-15T12:00:25.353Z,1.75
2022-11-15T12:03:14.004Z,1.40
2022-11-15T12:05:47.712Z,1.75
2022-11-15T12:08:28.174Z,1.80
2022-11-15T12:11:02.036Z,1.60
2022-11-15T12:13:34.896Z,1.30
2022-11-15T12:16:13.807Z,1.70
2022-11-15T12:18:42.570Z,1.02
2022-11-15T12:21:16.191Z,1.10
2022-11-15T12:23:47.337Z,1.00
2022-11-15T12:26:30.471Z,1.58
2022-11-15T12:29:12.384Z,1.38
2022-11-15T12:31:41.443Z,1.45
2022-11-15T12:34:34.867Z,1.73
2022-11-15T12:37:01.898Z,1.42
2022-11-15T12:39:48.293Z,1.20
2022-11-15T12:42:15.442Z,1.30
2022-11-15T12:44:43.164Z,1.30
2022-11-15T12:47:10.224Z,1.42
2022-11-15T12:49:37.502Z,1.25
2022-11-15T12:52:06.463Z,1.30
2022-11-15T12:54:33.819Z,1.70
2022-11-15T12:57:07.520Z,1.73
2022-11-15T12:59:55.765Z,1.45
2022-11-15T13:02:23.041Z,1.25
2022-11-15T13:04:50.702Z,2.28
2022-11-15T13:07:38.601Z,1.65
2022-11-15T13:10:11.806Z,1.58
2022-11-15T13:15:09.489Z,1.52
2022-11-15T13:17:38.659Z,1.92
2022-11-15T13:20:09.350Z,1.55
2022-11-15T13:22:52.436Z,1.38
2022-11-15T13:25:22.072Z,1.70
2022-11-15T13:27:50.259Z,1.42
2022-11-15T13:30:25.237Z,2.03
2022-11-15T13:32:53.094Z,1.48
2022-11-15T13:35:22.348Z,1.55
2022-11-15T13:37:49.818Z,1.80
2022-11-15T13:40:26.163Z,1.67
2022-11-15T13:42:53.328Z,1.70
2022-11-15T13:45:20.798Z,1.60
2022-11-15T13:47:53.192Z,1.30
2022-11-15T13:50:22.339Z,1.60
2022-11-15T13:52:50.216Z,1.40
2022-11-15T13:55:19.653Z,1.70
2022-11-15T13:57:49.454Z,1.60
2022-11-15T14:00:29.764Z,1.65
2022-11-15T14:02:57.473Z,1.70
2022-11-15T14:05:26.265Z,1.60
2022-11-15T14:07:56.656Z,1.80
2022-11-15T14:10:42.683Z,1.73
2022-11-15T14:13:30.050Z,1.40
2022-11-15T14:16:14.163Z,1.70
2022-11-15T14:18:47.467Z,1.65
2022-11-15T14:23:41.680Z,1.40
2022-11-15T14:26:27.419Z,1.30
2022-11-15T14:28:54.968Z,1.50
2022-11-15T14:31:23.108Z,1.50
2022-11-15T14:33:50.430Z,1.70
2022-11-15T14:36:19.567Z,1.60
2022-11-15T14:38:47.088Z,1.23
2022-11-15T14:41:33.832Z,1.42
2022-11-15T14:44:02.845Z,1.40
2022-11-15T14:46:33.734Z,1.90
2022-11-15T14:49:00.820Z,1.25
2022-11-15T14:51:28.201Z,1.48
2022-11-15T14:53:56.570Z,1.15
2022-11-15T14:56:23.610Z,1.30
2022-11-15T14:58:50.872Z,0.98
2022-11-15T15:01:27.157Z,1.60
2022-11-15T15:04:02.168Z,1.35
2022-11-15T15:06:32.356Z,1.58
2022-11-15T15:08:59.854Z,1.30
2022-11-15T15:11:28.365Z,1.40
2022-11-15T15:13:58.250Z,1.10
2022-11-15T15:16:26.034Z,1.45
2022-11-15T15:18:53.147Z,1.20
2022-11-15T15:21:24.631Z,1.55
2022-11-15T15:23:52.064Z,1.70
2022-11-15T15:26:20.868Z,1.30
2022-11-15T15:28:51.791Z,1.20
2022-11-15T15:31:19.349Z,1.10
2022-11-15T15:33:46.493Z,1.20
2022-11-15T15:36:18.487Z,1.42
2022-11-15T15:38:47.531Z,1.42
2022-11-15T15:41:16.665Z,1.40
2022-11-15T15:43:45.080Z,1.08
2022-11-15T15:46:17.420Z,1.27
2022-11-15T15:48:44.990Z,1.20
2022-11-15T15:51:18.697Z,1.17
2022-11-15T15:53:47.290Z,1.55
2022-11-15T15:56:14.707Z,1.20
2022-11-15T15:58:41.969Z,1.20
2022-11-15T16:01:09.103Z,1.17
2022-11-15T16:03:36.174Z,1.25
2022-11-15T16:06:05.208Z,1.23
2022-11-15T16:08:47.699Z,1.40
2022-11-15T16:11:20.135Z,1.20
2022-11-15T16:13:48.662Z,1.30
2022-11-15T16:16:15.693Z,1.13
2022-11-15T16:18:43.060Z,1.00
2022-11-15T16:21:10.393Z,1.35
2022-11-15T16:23:37.445Z,1.25
2022-11-15T16:26:11.511Z,1.08
2022-11-15T16:28:38.525Z,1.20
2022-11-15T16:31:07.144Z,1.20
2022-11-15T16:33:34.609Z,1.42
2022-11-15T16:36:06.439Z,1.23
2022-11-15T16:38:34.648Z,1.73
2022-11-15T16:41:04.273Z,1.10
2022-11-15T16:43:31.490Z,2.10
2022-11-15T16:45:58.671Z,1.73
2022-11-15T16:48:26.974Z,1.50
2022-11-15T16:50:57.832Z,1.30
2022-11-15T16:53:25.541Z,1.08
2022-11-15T16:55:52.766Z,1.17
2022-11-15T16:58:19.926Z,1.25
2022-11-15T17:00:51.401Z,1.27
2022-11-15T17:03:19.341Z,1.02
2022-11-15T17:05:46.373Z,1.40
2022-11-15T17:08:13.693Z,1.20
2022-11-15T17:10:44.222Z,1.33
2022-11-15T17:13:14.249Z,1.15
2022-11-15T17:15:41.339Z,1.38
2022-11-15T17:18:09.779Z,1.70
2022-11-15T17:20:37.018Z,1.52
2022-11-15T17:23:04.095Z,1.35
2022-11-15T17:25:31.195Z,1.60
2022-11-15T17:27:59.687Z,1.42
2022-11-15T17:30:27.073Z,1.30
2022-11-15T17:32:56.478Z,1.75
2022-11-15T17:35:26.445Z,1.60
2022-11-15T17:37:53.647Z,1.63
2022-11-15T17:40:20.979Z,1.60
2022-11-15T17:42:48.280Z,1.60
2022-11-15T17:45:15.352Z,1.80
2022-11-15T17:47:42.396Z,2.13
2022-11-15T17:50:10.669Z,1.80
2022-11-15T17:52:38.266Z,1.73
2022-11-15T17:55:06.222Z,2.10
2022-11-15T17:57:33.306Z,2.05
2022-11-15T18:00:00.538Z,2.30
2022-11-15T18:02:27.843Z,2.38
2022-11-15T18:04:55.049Z,2.35
2022-11-15T18:07:22.176Z,2.50
2022-11-15T18:09:49.548Z,2.50
2022-11-15T18:12:17.134Z,2.40
2022-11-15T18:14:44.532Z,2.60
2022-11-15T18:17:12.050Z,3.42
2022-11-15T18:19:40.071Z,2.33
2022-11-15T18:22:09.969Z,2.70
2022-11-15T18:24:42.975Z,2.75
2022-11-15T18:27:10.229Z,3.40
2022-11-15T18:29:38.158Z,3.50
2022-11-15T18:32:11.874Z,3.45
2022-11-15T18:34:39.186Z,3.22
2022-11-15T18:37:06.251Z,3.80
2022-11-15T18:39:33.362Z,3.13
2022-11-15T18:42:06.574Z,3.40
2022-11-15T18:44:34.368Z,3.28
2022-11-15T18:47:04.760Z,3.28
2022-11-15T18:49:35.369Z,3.47
2022-11-15T18:52:02.481Z,4.03
2022-11-15T18:54:31.642Z,3.60
2022-11-15T18:57:02.416Z,4.53
2022-11-15T18:59:30.450Z,3.70
2022-11-15T19:01:57.909Z,4.00
2022-11-15T19:04:25.589Z,4.50
2022-11-15T19:06:53.783Z,3.63
2022-11-15T19:09:21.227Z,4.00
2022-11-15T19:11:51.366Z,3.85
2022-11-15T19:14:19.454Z,4.43
2022-11-15T19:16:52.358Z,4.20
2022-11-15T19:19:21.363Z,4.45
2022-11-15T19:21:48.820Z,4.40
2022-11-15T19:24:16.071Z,4.50
2022-11-15T19:26:44.724Z,4.28
2022-11-15T19:29:12.125Z,4.80
2022-11-15T19:31:40.897Z,4.60
2022-11-15T19:34:08.555Z,4.97
2022-11-15T19:36:37.159Z,4.43
2022-11-15T19:39:08.499Z,4.80
2022-11-15T19:41:38.119Z,5.00
2022-11-15T19:44:08.183Z,4.60
2022-11-15T19:46:41.397Z,5.05
2022-11-15T19:49:11.222Z,5.38
2022-11-15T19:51:39.074Z,5.47
2022-11-15T19:54:10.652Z,5.78
2022-11-15T19:56:39.547Z,4.97
2022-11-15T19:59:06.795Z,5.15
2022-11-15T20:01:39.037Z,5.53
2022-11-15T20:04:07.661Z,5.33
2022-11-15T20:06:39.213Z,5.65
2022-11-15T20:09:07.069Z,5.72
2022-11-15T20:11:34.418Z,5.75
2022-11-15T20:14:02.602Z,5.78
2022-11-15T20:16:30.749Z,5.70
2022-11-15T20:18:59.927Z,5.95
2022-11-15T20:21:27.120Z,6.28
2022-11-15T20:23:55.170Z,6.45
2022-11-15T20:26:22.724Z,6.07
2022-11-15T20:28:50.439Z,7.40
2022-11-15T20:31:18.227Z,6.78
2022-11-15T20:33:45.795Z,7.13
2022-11-15T20:36:14.624Z,7.15
2022-11-15T20:38:42.172Z,7.10
2022-11-15T20:41:10.774Z,7.72
2022-11-15T20:43:38.288Z,7.68
2022-11-15T20:46:05.529Z,7.47
2022-11-15T20:48:33.209Z,8.07
2022-11-15T20:51:06.469Z,8.50
2022-11-15T20:53:34.034Z,8.65
2022-11-15T20:56:11.960Z,8.27
2022-11-15T20:58:41.522Z,8.32
2022-11-15T21:01:14.019Z,8.88
2022-11-15T21:03:41.408Z,8.55
2022-11-15T21:06:09.144Z,9.35
2022-11-15T21:08:59.880Z,8.65
2022-11-15T21:11:46.144Z,8.93
2022-11-15T21:14:13.254Z,9.93
2022-11-15T21:16:40.283Z,9.00
2022-11-15T21:19:07.633Z,9.93
2022-11-15T21:21:35.852Z,9.85
2022-11-15T21:24:07.891Z,10.10
2022-11-15T21:26:35.475Z,10.32
2022-11-15T21:29:02.990Z,10.05
2022-11-15T21:31:32.424Z,11.15
2022-11-15T21:34:02.993Z,10.60
2022-11-15T21:36:30.508Z,10.00
2022-11-15T21:38:58.259Z,10.65
2022-11-15T21:41:25.694Z,11.52
2022-11-15T21:43:52.897Z,10.63
2022-11-15T21:46:23.127Z,11.18
2022-11-15T21:48:50.257Z,10.88
2022-11-15T21:51:17.771Z,11.38
2022-11-15T21:53:45.062Z,10.43
2022-11-15T21:56:12.922Z,11.35
2022-11-15T21:58:40.132Z,10.68
2022-11-15T22:01:26.943Z,10.70
2022-11-15T22:03:54.088Z,10.38
2022-11-15T22:06:21.846Z,10.15
2022-11-15T22:08:49.300Z,10.10
2022-11-15T22:11:16.734Z,10.18
2022-11-15T22:13:44.228Z,10.13
2022-11-15T22:16:11.624Z,10.50
2022-11-15T22:18:39.208Z,10.13
2022-11-15T22:21:08.370Z,9.90
2022-11-15T22:23:36.373Z,10.32
2022-11-15T22:26:04.100Z,10.25
2022-11-15T22:28:31.694Z,9.68
2022-11-15T22:30:59.464Z,9.77
2022-11-15T22:33:27.839Z,9.40
2022-11-15T22:35:55.533Z,9.80
2022-11-15T22:38:22.759Z,10.10
2022-11-15T22:40:50.728Z,10.30
2022-11-15T22:43:19.409Z,9.82
2022-11-15T22:45:53.434Z,10.18
2022-11-15T22:48:21.452Z,10.55
2022-11-15T22:50:48.771Z,10.60
2022-11-15T22:53:16.303Z,10.55
2022-11-15T22:55:43.566Z,10.45
2022-11-15T22:58:11.274Z,10.70
2022-11-15T23:00:38.687Z,11.05
2022-11-15T23:03:05.946Z,10.63
2022-11-15T23:05:33.262Z,9.88
2022-11-15T23:08:01.225Z,10.38
2022-11-15T23:10:47.170Z,10.82
2022-11-15T23:13:18.198Z,11.10
2022-11-15T23:16:05.024Z,11.20
2022-11-15T23:18:36.814Z,10.77
2022-11-15T23:21:13.938Z,11.05
2022-11-15T23:23:41.037Z,10.70
2022-11-15T23:26:09.312Z,10.48
2022-11-15T23:28:36.773Z,11.13
2022-11-15T23:31:26.223Z,11.77
2022-11-15T23:33:59.570Z,11.55
2022-11-15T23:38:54.812Z,10.20
2022-11-15T23:41:23.747Z,11.35
2022-11-15T23:43:51.585Z,11.02
2022-11-15T23:46:18.758Z,11.40
2022-11-15T23:48:45.920Z,11.38
2022-11-15T23:51:13.366Z,12.25
2022-11-15T23:53:40.687Z,11.27
2022-11-15T23:56:10.343Z,12.35
2022-11-15T23:58:37.646Z,11.70
